Time;durP1;ratioP1;P1;durP2;ratioP2;P2;SDS_P1;SDS_P2;PMS_P1;PMS_P2;Temp;Humidity;BMP_temperature;BMP_pressure;BME280_temperature;BME280_humidity;BME280_pressure;Samples;Min_cycle;Max_cycle;Signal;HPM_P1;HPM_P2
2023/01/31 00:00:17;;;;;;;3.10;2.47;;;20.90;54.20;;;;;;5035468;28;20918;-67
2023/01/31 00:02:47;;;;;;;2.07;1.97;;;20.90;54.20;;;;;;5020506;28;20573;-68
2023/01/31 00:05:16;;;;;;;2.40;2.20;;;20.90;54.40;;;;;;5031926;28;20488;-67
2023/01/31 00:07:45;;;;;;;3.07;2.87;;;20.90;54.40;;;;;;5034536;28;20451;-67
2023/01/31 00:10:13;;;;;;;2.57;2.37;;;20.80;54.50;;;;;;5028498;28;20471;-68
2023/01/31 00:12:41;;;;;;;2.43;2.23;;;20.80;54.50;;;;;;5022282;28;20469;-67
2023/01/31 00:15:12;;;;;;;2.93;2.50;;;20.80;54.40;;;;;;5033714;28;20559;-67
2023/01/31 00:17:40;;;;;;;2.33;2.20;;;20.80;54.20;;;;;;5042507;28;20488;-67
2023/01/31 00:20:11;;;;;;;2.40;2.20;;;20.70;54.50;;;;;;5032419;28;20460;-67
2023/01/31 00:22:40;;;;;;;2.50;2.30;;;20.70;54.40;;;;;;5024446;28;20472;-67
2023/01/31 00:25:08;;;;;;;3.00;2.30;;;20.80;54.50;;;;;;5029583;28;23162;-68
2023/01/31 00:27:37;;;;;;;4.20;1.90;;;20.70;54.00;;;;;;5043546;28;23050;-67
2023/01/31 00:30:06;;;;;;;2.37;2.17;;;20.70;54.50;;;;;;5026338;28;20492;-67
2023/01/31 00:32:34;;;;;;;2.80;2.40;;;20.70;54.50;;;;;;5030812;28;20493;-67
2023/01/31 00:35:04;;;;;;;3.50;2.23;;;20.80;54.50;;;;;;5035329;28;20839;-67
2023/01/31 00:37:34;;;;;;;2.67;2.47;;;20.80;54.40;;;;;;5032775;28;20868;-68
2023/01/31 00:40:03;;;;;;;2.53;2.30;;;20.80;54.40;;;;;;5031458;28;20531;-68
2023/01/31 00:42:31;;;;;;;2.07;1.90;;;20.80;54.20;;;;;;5034911;28;20566;-67
2023/01/31 00:44:59;;;;;;;2.00;1.90;;;20.80;54.20;;;;;;5033930;28;21055;-67
2023/01/31 00:47:27;;;;;;;3.33;2.30;;;20.80;54.40;;;;;;5031934;28;20485;-68
2023/01/31 00:49:55;;;;;;;2.27;2.07;;;20.80;54.20;;;;;;5028934;28;20550;-67
2023/01/31 00:52:23;;;;;;;4.00;2.27;;;20.80;54.20;;;;;;5030674;28;20454;-67
2023/01/31 00:54:53;;;;;;;2.57;2.30;;;20.80;54.20;;;;;;5034548;28;20501;-67
2023/01/31 00:57:21;;;;;;;2.60;2.40;;;20.80;54.00;;;;;;5032092;28;20465;-67
2023/01/31 00:59:50;;;;;;;2.90;2.70;;;20.80;54.00;;;;;;5022679;28;20556;-67
2023/01/31 01:02:18;;;;;;;2.30;2.10;;;20.90;54.00;;;;;;5024383;28;20498;-67
2023/01/31 01:04:49;;;;;;;2.50;1.90;;;20.90;54.20;;;;;;5031532;28;20497;-67
2023/01/31 01:07:17;;;;;;;2.13;2.03;;;20.90;54.20;;;;;;5030125;28;20569;-67
2023/01/31 01:09:45;;;;;;;2.87;1.93;;;20.90;54.00;;;;;;5035688;28;20492;-67
2023/01/31 01:12:16;;;;;;;2.23;1.87;;;20.90;54.00;;;;;;5023392;28;20460;-67
2023/01/31 01:14:44;;;;;;;2.20;2.10;;;20.90;54.00;;;;;;5030242;28;20990;-67
2023/01/31 01:17:12;;;;;;;2.07;1.90;;;20.90;54.00;;;;;;5023035;28;20539;-67
2023/01/31 01:19:40;;;;;;;1.73;1.63;;;20.90;54.00;;;;;;5040846;28;20553;-67
2023/01/31 01:22:08;;;;;;;1.57;1.40;;;20.90;54.00;;;;;;5019261;28;20460;-67
2023/01/31 01:24:36;;;;;;;2.07;1.87;;;20.90;54.00;;;;;;5039457;28;20557;-67
2023/01/31 01:27:05;;;;;;;1.80;1.70;;;20.90;53.70;;;;;;5029090;28;21026;-67
2023/01/31 01:29:35;;;;;;;2.47;2.27;;;20.90;54.00;;;;;;5030728;28;20512;-67
2023/01/31 01:32:03;;;;;;;2.20;1.87;;;20.90;54.00;;;;;;5037113;28;20560;-67
2023/01/31 01:34:33;;;;;;;2.00;1.90;;;20.90;53.90;;;;;;5029463;28;20464;-67
2023/01/31 01:37:10;;;;;;;1.73;1.60;;;20.90;53.90;;;;;;5027842;28;20486;-67
2023/01/31 01:39:38;;;;;;;1.30;1.20;;;20.90;53.90;;;;;;5025533;28;20564;-68
2023/01/31 01:42:08;;;;;;;4.13;1.70;;;20.90;54.00;;;;;;5023323;28;20483;-67
2023/01/31 01:44:51;;;;;;;3.00;1.90;;;20.90;53.90;;;;;;5030218;28;20507;-67
2023/01/31 01:47:30;;;;;;;2.20;1.70;;;20.90;54.00;;;;;;5032164;28;21017;-67
2023/01/31 01:50:01;;;;;;;2.20;1.90;;;20.80;54.00;;;;;;5019711;28;20802;-67
2023/01/31 01:52:35;;;;;;;1.53;1.43;;;20.80;53.90;;;;;;5029053;28;20492;-67
2023/01/31 01:55:11;;;;;;;2.20;2.00;;;20.80;53.90;;;;;;5025200;28;20512;-67
2023/01/31 01:57:44;;;;;;;1.63;1.53;;;20.80;53.70;;;;;;5033801;28;20497;-67
2023/01/31 02:00:19;;;;;;;1.63;1.50;;;20.80;53.90;;;;;;5026939;28;21046;-67
2023/01/31 02:02:48;;;;;;;1.13;1.13;;;20.80;53.70;;;;;;5029446;28;20555;-67
2023/01/31 02:05:20;;;;;;;1.70;1.60;;;20.80;53.70;;;;;;5042031;28;20462;-68
2023/01/31 02:07:49;;;;;;;1.87;1.77;;;20.80;53.20;;;;;;5028330;28;20552;-67
2023/01/31 02:10:25;;;;;;;1.60;1.50;;;20.80;53.20;;;;;;5043502;28;20476;-67
2023/01/31 02:12:53;;;;;;;2.30;1.63;;;20.70;53.40;;;;;;5026598;28;20457;-67
2023/01/31 02:15:24;;;;;;;1.43;1.37;;;20.70;53.20;;;;;;5025595;28;20458;-67
2023/01/31 02:17:53;;;;;;;1.90;1.80;;;20.70;53.70;;;;;;5039395;28;20944;-67
2023/01/31 02:21:02;;;;;;;1.70;1.60;;;20.70;53.40;;;;;;5017729;28;20463;-67
2023/01/31 02:23:53;;;;;;;1.77;1.30;;;20.70;53.70;;;;;;5025976;28;20522;-67
2023/01/31 02:26:53;;;;;;;1.47;1.37;;;20.70;53.80;;;;;;5028922;28;20469;-67
2023/01/31 02:29:44;;;;;;;1.87;1.57;;;20.70;53.90;;;;;;5021289;28;20547;-67
2023/01/31 02:32:40;;;;;;;1.57;1.47;;;20.70;53.90;;;;;;5028464;28;20471;-68
2023/01/31 02:35:17;;;;;;;1.40;1.30;;;20.70;53.90;;;;;;5023982;28;20469;-68
2023/01/31 02:38:01;;;;;;;3.23;1.47;;;20.70;53.90;;;;;;5026211;28;20520;-67
2023/01/31 02:40:38;;;;;;;1.77;1.67;;;20.70;53.70;;;;;;5026851;28;20480;-67
2023/01/31 02:43:13;;;;;;;1.83;1.73;;;20.70;53.90;;;;;;5031660;28;20474;-67
2023/01/31 02:45:52;;;;;;;1.93;1.70;;;20.70;53.70;;;;;;5024337;28;20471;-67
2023/01/31 02:48:30;;;;;;;1.73;1.40;;;20.70;53.70;;;;;;5042813;28;20464;-67
2023/01/31 02:51:04;;;;;;;1.50;1.40;;;20.70;53.70;;;;;;5023704;28;20469;-67
2023/01/31 02:53:36;;;;;;;1.43;1.33;;;20.70;53.50;;;;;;5040798;28;20522;-67
2023/01/31 02:56:16;;;;;;;1.43;1.33;;;20.70;53.70;;;;;;5026597;28;20467;-67
2023/01/31 02:58:52;;;;;;;2.17;1.60;;;20.70;53.70;;;;;;5030075;28;20490;-67
2023/01/31 03:01:24;;;;;;;2.50;2.10;;;20.70;53.00;;;;;;5022940;28;20518;-67
2023/01/31 03:03:57;;;;;;;1.50;1.40;;;20.70;53.50;;;;;;5022744;28;20485;-67
2023/01/31 03:06:58;;;;;;;1.33;1.20;;;20.70;53.10;;;;;;5019925;28;20457;-67
2023/01/31 03:09:41;;;;;;;1.70;1.37;;;20.70;53.30;;;;;;5027265;28;20834;-67
2023/01/31 03:12:58;;;;;;;2.27;1.67;;;20.70;53.50;;;;;;5026709;28;20477;-67
2023/01/31 03:18:42;;;;;;;1.43;1.33;;;20.70;53.30;;;;;;5033303;28;20507;-67
2023/01/31 03:21:15;;;;;;;1.40;1.30;;;20.70;53.70;;;;;;5010077;28;20858;-67
2023/01/31 03:23:48;;;;;;;1.30;1.10;;;20.70;53.70;;;;;;5024542;28;21034;-67
2023/01/31 03:26:18;;;;;;;1.70;1.50;;;20.70;53.70;;;;;;5034060;28;20557;-67
2023/01/31 03:28:53;;;;;;;1.97;1.40;;;20.70;53.70;;;;;;5028354;28;20465;-67
2023/01/31 03:31:25;;;;;;;1.40;1.30;;;20.70;53.70;;;;;;5023490;28;20620;-67
2023/01/31 03:33:56;;;;;;;1.50;1.40;;;20.70;53.40;;;;;;5023700;28;20956;-67
2023/01/31 03:36:35;;;;;;;1.43;1.33;;;20.70;53.60;;;;;;5041243;28;20460;-68
2023/01/31 03:39:34;;;;;;;1.20;1.10;;;20.70;53.60;;;;;;5022951;28;20452;-67
2023/01/31 03:42:08;;;;;;;1.50;1.40;;;20.70;53.60;;;;;;5042609;28;20488;-67
2023/01/31 03:44:44;;;;;;;1.60;1.30;;;20.70;53.50;;;;;;5026319;28;20501;-67
2023/01/31 03:47:16;;;;;;;3.60;1.33;;;20.70;53.50;;;;;;5032252;28;20481;-67
2023/01/31 03:49:49;;;;;;;1.80;1.40;;;20.70;53.40;;;;;;5031173;28;20964;-67
2023/01/31 03:52:24;;;;;;;1.17;1.07;;;20.70;53.50;;;;;;5024474;28;20478;-67
2023/01/31 03:54:56;;;;;;;1.43;1.10;;;20.70;53.50;;;;;;5026754;28;21019;-67
2023/01/31 03:57:31;;;;;;;1.40;1.30;;;20.70;53.40;;;;;;5032965;28;20459;-68
2023/01/31 04:00:03;;;;;;;1.93;1.40;;;20.70;53.40;;;;;;5045109;28;21013;-67
2023/01/31 04:02:42;;;;;;;2.33;1.10;;;20.70;53.40;;;;;;5042193;28;20881;-67
2023/01/31 04:05:17;;;;;;;1.40;1.30;;;20.70;53.40;;;;;;5034224;28;20485;-67
2023/01/31 04:07:49;;;;;;;1.30;1.20;;;20.70;53.40;;;;;;5022668;28;20473;-67
2023/01/31 04:10:25;;;;;;;1.67;1.30;;;20.70;53.20;;;;;;5042389;28;20463;-67
2023/01/31 04:12:53;;;;;;;1.70;1.60;;;20.70;53.40;;;;;;5033596;28;20453;-67
2023/01/31 04:15:21;;;;;;;1.70;1.60;;;20.70;53.40;;;;;;5031431;28;20460;-67
2023/01/31 04:17:50;;;;;;;2.60;1.40;;;20.70;53.20;;;;;;5026601;28;20459;-67
2023/01/31 04:20:18;;;;;;;1.83;1.40;;;20.70;53.40;;;;;;5031213;28;20532;-67
2023/01/31 04:22:46;;;;;;;1.33;1.20;;;20.70;53.20;;;;;;5031965;28;20461;-67
2023/01/31 04:25:16;;;;;;;1.23;1.13;;;20.70;53.20;;;;;;5031178;28;20481;-67
2023/01/31 04:27:44;;;;;;;1.50;1.40;;;20.70;53.20;;;;;;5036193;28;20463;-67
2023/01/31 04:30:13;;;;;;;1.43;1.33;;;20.70;53.20;;;;;;5035122;28;20461;-67
2023/01/31 04:32:41;;;;;;;1.47;1.10;;;20.70;52.80;;;;;;5036709;28;20582;-67
2023/01/31 04:35:09;;;;;;;1.53;1.23;;;20.70;53.20;;;;;;5030637;28;20460;-67
2023/01/31 04:37:38;;;;;;;1.17;1.07;;;20.70;52.90;;;;;;5027986;28;20522;-67
2023/01/31 04:40:08;;;;;;;1.30;1.20;;;20.70;52.90;;;;;;5028040;28;20458;-67
2023/01/31 04:42:38;;;;;;;1.10;1.00;;;20.70;53.10;;;;;;5028803;28;20502;-67
2023/01/31 04:45:07;;;;;;;1.43;1.33;;;20.70;53.20;;;;;;5031581;28;20475;-67
2023/01/31 04:47:36;;;;;;;1.47;1.20;;;20.70;53.30;;;;;;5017238;28;20491;-67
2023/01/31 04:50:05;;;;;;;2.90;1.20;;;20.70;53.20;;;;;;5025015;28;20820;-67
2023/01/31 04:52:33;;;;;;;3.80;1.50;;;20.70;53.20;;;;;;5025589;28;20548;-67
2023/01/31 04:55:01;;;;;;;1.70;1.30;;;20.70;53.20;;;;;;5031717;28;20554;-67
2023/01/31 04:57:29;;;;;;;2.07;1.03;;;20.70;53.20;;;;;;5028645;28;20478;-67
2023/01/31 05:00:00;;;;;;;1.40;1.30;;;20.70;53.30;;;;;;5027383;28;20461;-67
2023/01/31 05:02:30;;;;;;;1.27;1.20;;;20.70;53.10;;;;;;5029738;28;20461;-67
2023/01/31 05:04:59;;;;;;;1.27;1.13;;;20.70;53.30;;;;;;5028154;28;20480;-67
2023/01/31 05:07:27;;;;;;;2.23;2.03;;;20.70;53.10;;;;;;5032107;28;20465;-67
2023/01/31 05:09:55;;;;;;;1.50;1.40;;;20.70;53.20;;;;;;5024098;28;20567;-67
2023/01/31 05:12:23;;;;;;;1.90;1.57;;;20.70;52.80;;;;;;5041314;28;20454;-67
2023/01/31 05:14:51;;;;;;;1.37;1.27;;;20.70;53.00;;;;;;5029549;28;20948;-68
2023/01/31 05:17:25;;;;;;;1.30;1.27;;;20.70;52.70;;;;;;5035681;28;20552;-67
2023/01/31 05:19:53;;;;;;;1.23;1.13;;;20.70;52.40;;;;;;5034465;28;20456;-67
2023/01/31 05:22:21;;;;;;;1.40;1.30;;;20.70;52.90;;;;;;5038876;28;20464;-68
2023/01/31 05:24:50;;;;;;;1.87;1.20;;;20.70;52.50;;;;;;5039918;28;20444;-68
2023/01/31 05:27:19;;;;;;;2.90;1.27;;;20.70;52.60;;;;;;5012939;28;20547;-67
2023/01/31 05:29:47;;;;;;;1.43;1.33;;;20.70;53.00;;;;;;5025184;28;20496;-67
2023/01/31 05:32:18;;;;;;;1.20;1.10;;;20.70;52.90;;;;;;5024985;28;20891;-67
2023/01/31 05:34:47;;;;;;;1.97;1.40;;;20.70;52.80;;;;;;5027085;28;20470;-67
2023/01/31 05:37:15;;;;;;;1.90;1.70;;;20.70;52.30;;;;;;5035683;28;20908;-67
2023/01/31 05:39:43;;;;;;;1.40;1.17;;;20.60;52.10;;;;;;5024650;28;20488;-67
2023/01/31 05:42:12;;;;;;;1.30;1.20;;;20.70;53.00;;;;;;5030618;28;20485;-67
2023/01/31 05:44:40;;;;;;;1.20;1.10;;;20.70;53.00;;;;;;5030985;28;20531;-67
2023/01/31 05:47:08;;;;;;;1.10;1.10;;;20.70;53.00;;;;;;5028173;28;20968;-67
2023/01/31 05:49:36;;;;;;;1.77;1.10;;;20.70;53.00;;;;;;5027624;28;20449;-67
2023/01/31 05:52:06;;;;;;;3.37;1.77;;;20.70;53.00;;;;;;5026035;28;20460;-68
2023/01/31 05:54:34;;;;;;;1.40;1.30;;;20.70;53.10;;;;;;5026609;28;20467;-66
2023/01/31 05:57:02;;;;;;;1.10;1.10;;;20.70;53.00;;;;;;5029526;28;20463;-65
2023/01/31 05:59:32;;;;;;;1.60;1.50;;;20.70;53.20;;;;;;5038352;28;20457;-66
2023/01/31 06:02:00;;;;;;;3.50;1.93;;;20.70;53.30;;;;;;5028229;28;20935;-66
2023/01/31 06:04:29;;;;;;;2.60;1.37;;;20.70;52.90;;;;;;5032030;28;20577;-67
2023/01/31 06:06:57;;;;;;;1.50;1.10;;;20.70;53.50;;;;;;5029606;28;20481;-66
2023/01/31 06:09:27;;;;;;;1.40;1.30;;;20.70;53.80;;;;;;5031976;28;20465;-66
2023/01/31 06:11:55;;;;;;;2.50;1.57;;;20.70;53.90;;;;;;5025541;28;20555;-67
2023/01/31 06:14:23;;;;;;;1.57;1.20;;;20.60;54.10;;;;;;5025281;28;21005;-66
2023/01/31 06:16:52;;;;;;;1.97;1.83;;;20.70;54.20;;;;;;5037815;28;20568;-66
2023/01/31 06:19:24;;;;;;;2.53;1.40;;;20.60;54.30;;;;;;5034009;28;20453;-66
2023/01/31 06:21:52;;;;;;;2.80;1.20;;;20.60;54.30;;;;;;5020703;28;20526;-66
2023/01/31 06:24:20;;;;;;;2.33;1.47;;;20.60;54.40;;;;;;5026738;28;20456;-66
2023/01/31 06:26:50;;;;;;;2.07;1.20;;;20.60;54.40;;;;;;5030044;28;20509;-66
2023/01/31 06:29:18;;;;;;;3.63;1.40;;;20.60;54.50;;;;;;5040797;28;20444;-66
2023/01/31 06:31:46;;;;;;;1.70;1.40;;;20.60;54.50;;;;;;5025498;28;20492;-66
2023/01/31 06:34:14;;;;;;;3.07;1.70;;;20.60;54.50;;;;;;5028901;28;20449;-66
2023/01/31 06:36:43;;;;;;;2.20;1.20;;;20.60;54.50;;;;;;5017010;28;21102;-66
2023/01/31 06:39:12;;;;;;;3.60;2.10;;;20.60;54.60;;;;;;5019803;28;20458;-65
2023/01/31 06:41:40;;;;;;;2.77;1.30;;;20.60;54.60;;;;;;5022949;28;21003;-65
2023/01/31 06:44:09;;;;;;;2.30;1.80;;;20.60;54.60;;;;;;5031203;28;20534;-65
2023/01/31 06:46:38;;;;;;;4.47;2.10;;;20.60;54.00;;;;;;5035936;28;20988;-66
2023/01/31 06:49:06;;;;;;;1.90;1.47;;;20.60;54.00;;;;;;5024060;28;20894;-65
2023/01/31 06:51:34;;;;;;;2.17;1.57;;;20.60;54.00;;;;;;5024575;28;20497;-66
2023/01/31 06:54:03;;;;;;;6.03;2.47;;;20.70;54.10;;;;;;5030557;28;20543;-66
2023/01/31 06:56:31;;;;;;;2.50;1.73;;;20.70;53.60;;;;;;5031602;28;20961;-66
2023/01/31 06:58:59;;;;;;;5.23;1.83;;;20.70;53.90;;;;;;5032498;28;20471;-66
2023/01/31 07:01:29;;;;;;;3.10;1.83;;;20.70;54.30;;;;;;5029868;28;20955;-65
2023/01/31 07:03:57;;;;;;;2.20;1.53;;;20.70;54.30;;;;;;5033010;28;20459;-66
2023/01/31 07:06:25;;;;;;;2.43;2.23;;;20.70;54.20;;;;;;5023306;28;20560;-66
2023/01/31 07:08:53;;;;;;;2.13;1.83;;;20.70;53.50;;;;;;5041350;28;20515;-66
2023/01/31 07:11:21;;;;;;;5.57;1.70;;;20.70;53.70;;;;;;5027125;28;20471;-66
2023/01/31 07:13:50;;;;;;;3.13;2.00;;;20.70;53.30;;;;;;5034752;28;20528;-66
2023/01/31 07:16:18;;;;;;;7.77;1.70;;;20.70;53.20;;;;;;5022160;28;20523;-66
2023/01/31 07:18:48;;;;;;;3.50;1.70;;;20.70;53.50;;;;;;5022878;28;20480;-66
2023/01/31 07:21:16;;;;;;;2.43;1.70;;;20.70;53.50;;;;;;5023995;28;20567;-66
2023/01/31 07:23:45;;;;;;;1.83;1.63;;;20.60;53.20;;;;;;5032010;28;20496;-66
2023/01/31 07:26:13;;;;;;;5.27;2.00;;;20.60;53.30;;;;;;5024639;28;20473;-66
2023/01/31 07:28:41;;;;;;;2.77;1.87;;;20.60;53.40;;;;;;5032629;28;20490;-66
2023/01/31 07:31:12;;;;;;;1.73;1.40;;;20.60;53.40;;;;;;5027545;28;20499;-66
2023/01/31 07:33:40;;;;;;;3.33;2.10;;;20.60;53.50;;;;;;5031094;28;20465;-66
2023/01/31 07:36:13;;;;;;;2.37;1.50;;;20.60;53.40;;;;;;5022362;28;20471;-66
2023/01/31 07:38:42;;;;;;;3.37;2.67;;;20.50;53.30;;;;;;5029039;28;20829;-66
2023/01/31 07:41:11;;;;;;;1.50;1.37;;;20.50;53.00;;;;;;5017207;28;20489;-66
2023/01/31 07:43:39;;;;;;;2.70;1.87;;;20.50;52.90;;;;;;5033653;28;21059;-66
2023/01/31 07:46:11;;;;;;;3.13;1.87;;;20.40;53.30;;;;;;5031902;28;20849;-66
2023/01/31 07:48:39;;;;;;;3.70;1.93;;;20.40;53.20;;;;;;5033811;28;20465;-66
2023/01/31 07:51:10;;;;;;;1.97;1.77;;;20.40;53.00;;;;;;5032855;28;20544;-66
2023/01/31 07:53:41;;;;;;;1.90;1.80;;;20.50;53.20;;;;;;5029633;28;20496;-66
2023/01/31 07:56:11;;;;;;;2.50;2.27;;;20.50;52.80;;;;;;5020203;28;20527;-66
2023/01/31 07:58:40;;;;;;;2.97;2.20;;;20.50;52.70;;;;;;5022578;28;20462;-66
2023/01/31 08:04:00;;;;;;;2.40;2.17;;;20.50;52.50;;;;;;5032791;28;20492;-66
2023/01/31 08:06:49;;;;;;;5.30;2.40;;;20.50;52.10;;;;;;5027699;28;20503;-66
2023/01/31 08:09:17;;;;;;;4.27;2.40;;;20.50;52.20;;;;;;5028869;28;20551;-66
2023/01/31 08:11:45;;;;;;;2.07;1.87;;;20.50;52.00;;;;;;5026781;28;20887;-66
2023/01/31 08:14:13;;;;;;;2.17;1.80;;;20.50;52.30;;;;;;5036138;28;20475;-66
2023/01/31 08:16:41;;;;;;;3.40;1.70;;;20.50;52.20;;;;;;5029124;28;20512;-66
2023/01/31 08:19:09;;;;;;;2.20;2.10;;;20.60;52.00;;;;;;5030802;28;20465;-66
2023/01/31 08:21:37;;;;;;;3.00;2.27;;;20.60;51.90;;;;;;5033252;28;20944;-66
2023/01/31 08:24:08;;;;;;;4.07;2.03;;;20.60;51.60;;;;;;5032699;28;20541;-66
2023/01/31 08:26:36;;;;;;;4.27;1.80;;;20.60;51.60;;;;;;5034403;28;20468;-66
2023/01/31 08:29:04;;;;;;;1.87;1.77;;;20.60;51.80;;;;;;5036113;28;20461;-66
2023/01/31 08:31:33;;;;;;;2.30;2.10;;;20.60;52.20;;;;;;5028588;28;20456;-66
2023/01/31 08:34:02;;;;;;;2.13;1.53;;;20.60;51.80;;;;;;5026281;28;20468;-66
2023/01/31 08:36:31;;;;;;;1.80;1.70;;;20.60;51.70;;;;;;5029652;28;20519;-66
2023/01/31 08:39:00;;;;;;;3.30;2.33;;;20.60;51.80;;;;;;5030710;28;20616;-66
2023/01/31 08:41:31;;;;;;;2.00;1.90;;;20.60;51.70;;;;;;5029914;28;20540;-66
2023/01/31 08:44:00;;;;;;;2.60;2.20;;;20.60;51.80;;;;;;5026949;28;21180;-66
2023/01/31 08:46:33;;;;;;;2.27;2.10;;;20.50;51.90;;;;;;5034646;28;20535;-66
2023/01/31 08:49:03;;;;;;;2.73;2.07;;;20.50;51.90;;;;;;5026927;28;20572;-66
2023/01/31 08:51:31;;;;;;;2.80;2.60;;;20.50;52.00;;;;;;5032630;28;20453;-66
2023/01/31 08:53:59;;;;;;;3.00;1.93;;;20.50;51.80;;;;;;5031507;28;21286;-66
2023/01/31 08:56:29;;;;;;;1.93;1.83;;;20.50;51.60;;;;;;5026714;28;20459;-66
2023/01/31 08:58:57;;;;;;;2.37;1.67;;;20.40;51.80;;;;;;5032602;28;20555;-66
2023/01/31 09:01:26;;;;;;;2.50;2.30;;;20.40;52.00;;;;;;5025644;28;20455;-66
2023/01/31 09:03:55;;;;;;;2.03;1.83;;;20.40;51.50;;;;;;5025080;28;20945;-66
2023/01/31 09:06:26;;;;;;;4.60;2.03;;;20.40;51.80;;;;;;5029913;28;20460;-66
2023/01/31 09:08:56;;;;;;;2.20;2.00;;;20.40;51.70;;;;;;5026772;28;20901;-66
2023/01/31 09:11:26;;;;;;;1.93;1.83;;;20.40;51.60;;;;;;5029853;28;20468;-66
2023/01/31 09:13:56;;;;;;;2.13;1.90;;;20.40;51.90;;;;;;5032057;28;21560;-66
2023/01/31 09:16:25;;;;;;;2.50;2.10;;;20.40;51.70;;;;;;5024707;28;20453;-66
2023/01/31 09:18:55;;;;;;;2.47;2.20;;;20.50;51.50;;;;;;5028344;28;20525;-66
2023/01/31 09:21:24;;;;;;;2.20;2.00;;;20.50;51.40;;;;;;5029842;28;20463;-66
2023/01/31 09:23:56;;;;;;;2.10;2.00;;;20.50;51.50;;;;;;5030460;28;20452;-66
2023/01/31 09:26:25;;;;;;;2.00;1.70;;;20.60;51.80;;;;;;5029525;28;20469;-66
2023/01/31 09:28:54;;;;;;;2.50;2.10;;;20.70;51.30;;;;;;5032110;28;20477;-66
2023/01/31 09:31:25;;;;;;;2.33;1.67;;;20.70;51.10;;;;;;5028225;28;20458;-66
2023/01/31 09:33:53;;;;;;;2.13;1.93;;;20.70;51.10;;;;;;5023270;28;20465;-66
2023/01/31 09:36:23;;;;;;;2.20;2.00;;;20.80;50.80;;;;;;5034411;28;20463;-66
2023/01/31 09:38:54;;;;;;;2.03;1.93;;;20.80;50.70;;;;;;5024231;28;20990;-66
2023/01/31 09:41:28;;;;;;;2.30;2.10;;;20.80;50.80;;;;;;5031299;28;20568;-66
2023/01/31 09:44:01;;;;;;;1.67;1.57;;;20.80;50.90;;;;;;5025100;28;20469;-66
2023/01/31 09:46:36;;;;;;;3.00;2.07;;;20.80;50.90;;;;;;5037052;28;20456;-66
2023/01/31 09:49:10;;;;;;;2.50;2.17;;;20.80;50.80;;;;;;5019372;28;20980;-66
2023/01/31 09:51:39;;;;;;;2.13;1.90;;;20.80;50.70;;;;;;5025370;28;20819;-67
2023/01/31 09:54:17;;;;;;;3.23;2.40;;;20.80;50.70;;;;;;5027949;28;20460;-66
2023/01/31 09:56:52;;;;;;;1.90;1.80;;;20.70;50.80;;;;;;5030863;28;20985;-66
2023/01/31 09:59:23;;;;;;;2.30;2.10;;;20.70;50.90;;;;;;5023744;28;20495;-66
2023/01/31 10:01:59;;;;;;;2.10;1.90;;;20.70;51.10;;;;;;5022726;28;20484;-66
2023/01/31 10:04:44;;;;;;;1.80;1.70;;;20.70;51.10;;;;;;5023751;28;20805;-66
2023/01/31 10:07:16;;;;;;;1.90;1.80;;;20.70;51.10;;;;;;5027079;28;20558;-66
2023/01/31 10:09:49;;;;;;;1.97;1.77;;;20.70;51.00;;;;;;5024901;28;20489;-66
2023/01/31 10:12:22;;;;;;;2.17;2.07;;;20.70;51.10;;;;;;5021008;28;21389;-66
2023/01/31 10:14:53;;;;;;;2.70;1.83;;;20.70;50.90;;;;;;5030645;28;20821;-66
2023/01/31 10:17:26;;;;;;;2.17;1.90;;;20.70;50.80;;;;;;5028823;28;20964;-66
2023/01/31 10:19:57;;;;;;;2.87;2.00;;;20.80;50.80;;;;;;5031145;28;20515;-66
2023/01/31 10:22:32;;;;;;;2.90;2.20;;;20.90;50.60;;;;;;5034096;28;20462;-66
2023/01/31 10:25:06;;;;;;;2.00;1.90;;;20.90;50.40;;;;;;5027269;28;20526;-66
2023/01/31 10:27:42;;;;;;;3.50;2.33;;;20.90;50.30;;;;;;5031135;28;20456;-66
2023/01/31 10:30:18;;;;;;;3.10;2.03;;;21.00;50.30;;;;;;5021793;28;20465;-66
2023/01/31 10:32:51;;;;;;;2.80;2.00;;;21.00;50.10;;;;;;5033809;28;20494;-66
2023/01/31 10:35:24;;;;;;;1.73;1.63;;;21.00;50.10;;;;;;5025764;28;20544;-66
2023/01/31 10:37:57;;;;;;;2.23;1.80;;;21.00;50.30;;;;;;5029763;28;20496;-66
2023/01/31 10:40:32;;;;;;;3.90;2.50;;;21.00;50.10;;;;;;5030490;28;20531;-66
2023/01/31 10:43:10;;;;;;;1.90;1.70;;;21.00;50.10;;;;;;5033046;28;20813;-66
2023/01/31 10:45:38;;;;;;;2.57;1.77;;;21.00;50.00;;;;;;5022966;28;20489;-66
2023/01/31 10:48:15;;;;;;;2.97;1.90;;;21.00;49.80;;;;;;5022985;28;20477;-66
2023/01/31 10:50:55;;;;;;;2.33;1.90;;;21.00;49.80;;;;;;5032093;28;21024;-66
2023/01/31 10:53:55;;;;;;;2.43;1.70;;;20.90;49.80;;;;;;5017176;28;20461;-66
2023/01/31 10:56:28;;;;;;;2.07;1.63;;;20.90;50.00;;;;;;5031670;28;20464;-66
2023/01/31 10:58:58;;;;;;;1.97;1.80;;;20.90;50.20;;;;;;5029932;28;20472;-66
2023/01/31 11:01:26;;;;;;;1.50;1.40;;;20.80;50.30;;;;;;5030292;28;20575;-66
2023/01/31 11:03:57;;;;;;;1.70;1.60;;;20.80;50.50;;;;;;5035853;28;20515;-66
2023/01/31 11:06:25;;;;;;;1.50;1.40;;;20.80;50.60;;;;;;5039212;28;20477;-66
2023/01/31 11:08:56;;;;;;;2.10;1.90;;;20.80;50.70;;;;;;5036326;28;20478;-66
2023/01/31 11:11:28;;;;;;;1.60;1.50;;;20.80;50.90;;;;;;5031503;28;20442;-66
2023/01/31 11:13:58;;;;;;;2.10;1.43;;;20.80;51.00;;;;;;5042650;28;20459;-66
2023/01/31 11:16:29;;;;;;;2.47;2.27;;;20.80;51.00;;;;;;5047197;28;20966;-66
2023/01/31 11:19:01;;;;;;;1.13;0.97;;;20.80;51.30;;;;;;5034767;28;20503;-65
2023/01/31 11:21:34;;;;;;;1.90;1.80;;;20.80;51.40;;;;;;5029452;28;20500;-66
2023/01/31 11:24:05;;;;;;;2.40;1.90;;;20.90;51.30;;;;;;5032778;28;20472;-66
2023/01/31 11:26:36;;;;;;;1.53;1.37;;;20.90;51.00;;;;;;5038300;28;20998;-66
2023/01/31 11:29:15;;;;;;;2.40;1.97;;;20.90;50.90;;;;;;5034297;28;20514;-66
2023/01/31 11:31:46;;;;;;;1.40;1.30;;;21.00;51.00;;;;;;5037292;28;20530;-66
2023/01/31 11:34:24;;;;;;;2.00;1.50;;;21.10;51.30;;;;;;5036760;28;20864;-66
2023/01/31 11:36:53;;;;;;;1.90;1.80;;;21.20;51.00;;;;;;5037986;28;20477;-66
2023/01/31 11:39:28;;;;;;;1.50;1.40;;;21.20;51.40;;;;;;5039670;28;20471;-66
2023/01/31 11:41:56;;;;;;;1.90;1.77;;;21.30;51.20;;;;;;5044163;28;20475;-66
2023/01/31 11:44:24;;;;;;;1.53;1.40;;;21.40;51.30;;;;;;5044859;28;20877;-67
2023/01/31 11:46:56;;;;;;;2.17;1.70;;;21.60;51.20;;;;;;5053047;28;20442;-66
2023/01/31 11:49:31;;;;;;;1.30;1.20;;;21.80;50.90;;;;;;5045829;28;20512;-66
2023/01/31 11:52:02;;;;;;;1.80;1.70;;;22.10;50.70;;;;;;5046859;28;20991;-66
2023/01/31 11:54:34;;;;;;;1.73;1.63;;;22.20;50.50;;;;;;5039630;28;20906;-66
2023/01/31 11:57:02;;;;;;;2.27;1.87;;;22.40;50.10;;;;;;5044558;28;20446;-66
2023/01/31 11:59:31;;;;;;;1.40;1.30;;;22.60;49.70;;;;;;5037422;28;20467;-65
2023/01/31 12:02:01;;;;;;;1.70;1.40;;;22.80;49.50;;;;;;5048475;28;20542;-64
2023/01/31 12:04:40;;;;;;;2.00;1.80;;;22.90;49.20;;;;;;5030166;28;20465;-65
2023/01/31 12:07:22;;;;;;;2.50;1.90;;;23.00;49.00;;;;;;5039191;28;20471;-64
2023/01/31 12:09:50;;;;;;;1.43;1.27;;;23.00;49.00;;;;;;5041503;28;21029;-64
2023/01/31 12:12:26;;;;;;;3.07;1.60;;;23.00;49.00;;;;;;5027188;28;20497;-64
2023/01/31 12:14:59;;;;;;;1.53;1.40;;;22.90;49.00;;;;;;5035337;28;20531;-64
2023/01/31 12:17:30;;;;;;;1.90;1.50;;;23.00;49.00;;;;;;5039751;28;20555;-65
2023/01/31 12:20:15;;;;;;;2.70;1.87;;;23.10;49.00;;;;;;5040043;28;20461;-64
2023/01/31 12:23:03;;;;;;;1.63;1.53;;;23.10;48.80;;;;;;5044106;28;20550;-65
2023/01/31 12:25:46;;;;;;;1.60;1.50;;;23.10;48.90;;;;;;5048316;28;20608;-64
2023/01/31 12:28:29;;;;;;;1.50;1.40;;;22.90;48.90;;;;;;5053629;28;20654;-65
2023/01/31 12:31:11;;;;;;;2.30;1.67;;;22.80;49.00;;;;;;5046866;28;21001;-64
2023/01/31 12:33:51;;;;;;;1.70;1.60;;;22.70;49.20;;;;;;5026849;28;20496;-65
2023/01/31 12:36:39;;;;;;;2.00;1.87;;;22.50;49.30;;;;;;5039507;28;20602;-64
2023/01/31 12:39:24;;;;;;;3.20;2.00;;;22.50;49.50;;;;;;5040546;28;20506;-65
2023/01/31 12:42:06;;;;;;;1.77;1.67;;;22.40;49.60;;;;;;5039674;28;20492;-65
2023/01/31 12:44:46;;;;;;;2.07;1.87;;;22.40;49.80;;;;;;5038346;28;20459;-65
2023/01/31 12:47:28;;;;;;;1.37;1.27;;;22.40;49.80;;;;;;5028404;28;20502;-66
2023/01/31 12:50:13;;;;;;;3.23;1.87;;;22.40;49.90;;;;;;5041649;28;21144;-65
2023/01/31 12:52:54;;;;;;;1.87;1.67;;;22.30;49.60;;;;;;5044323;28;20482;-65
2023/01/31 12:55:32;;;;;;;1.90;1.60;;;22.20;50.00;;;;;;5028866;28;20525;-65
2023/01/31 12:58:26;;;;;;;2.63;1.43;;;22.10;50.10;;;;;;5037756;28;20483;-65
2023/01/31 13:01:01;;;;;;;1.40;1.30;;;22.10;50.30;;;;;;5043900;28;20459;-65
2023/01/31 13:03:44;;;;;;;2.30;2.10;;;22.00;50.10;;;;;;5026921;28;20471;-65
2023/01/31 13:06:16;;;;;;;1.90;1.80;;;22.00;50.50;;;;;;5038907;28;20493;-65
2023/01/31 13:08:51;;;;;;;8.83;2.63;;;21.90;50.20;;;;;;5040598;28;22115;-64
2023/01/31 13:11:40;;;;;;;1.70;1.60;;;21.80;50.40;;;;;;5038620;28;20467;-65
2023/01/31 13:14:14;;;;;;;3.30;2.33;;;21.80;50.40;;;;;;5045958;28;20470;-65
2023/01/31 13:16:46;;;;;;;4.37;1.60;;;21.70;50.40;;;;;;5031853;28;20543;-65
2023/01/31 13:19:19;;;;;;;2.43;2.10;;;21.60;50.50;;;;;;5031728;28;20534;-65